createdAt,value
2024-04-22T00:00:33.522Z,99.99
2024-04-22T00:01:33.546Z,99.99
2024-04-22T00:02:33.512Z,99.99
2024-04-22T00:03:33.493Z,99.99
2024-04-22T00:04:33.530Z,99.99
2024-04-22T00:05:33.473Z,99.99
2024-04-22T00:06:33.469Z,99.99
2024-04-22T00:07:33.548Z,99.99
2024-04-22T00:08:33.430Z,99.99
2024-04-22T00:09:33.462Z,99.99
2024-04-22T00:10:33.454Z,99.99
2024-04-22T00:11:33.486Z,99.99
2024-04-22T00:12:33.564Z,99.99
2024-04-22T00:13:33.705Z,99.99
2024-04-22T00:14:33.377Z,99.99
2024-04-22T00:15:33.385Z,99.99
2024-04-22T00:16:33.344Z,99.99
2024-04-22T00:17:33.413Z,99.99
2024-04-22T00:18:33.327Z,99.99
2024-04-22T00:19:33.357Z,99.99
2024-04-22T00:20:33.316Z,99.99
2024-04-22T00:21:33.280Z,99.99
2024-04-22T00:22:33.350Z,99.99
2024-04-22T00:23:33.305Z,99.99
2024-04-22T00:24:33.276Z,99.99
2024-04-22T00:25:33.249Z,99.99
2024-04-22T00:26:33.242Z,99.99
2024-04-22T00:27:33.207Z,99.99
2024-04-22T00:28:33.247Z,99.99
2024-04-22T00:29:33.217Z,99.99
2024-04-22T00:30:33.169Z,99.99
2024-04-22T00:31:33.213Z,99.99
2024-04-22T00:32:33.185Z,99.99
2024-04-22T00:33:33.198Z,99.99
2024-04-22T00:34:33.223Z,99.99
2024-04-22T00:35:33.147Z,99.99
2024-04-22T00:36:33.098Z,99.99
2024-04-22T00:37:33.119Z,99.99
2024-04-22T00:38:33.095Z,99.99
2024-04-22T00:39:33.081Z,99.99
2024-04-22T00:40:33.167Z,99.99
2024-04-22T00:41:33.084Z,99.99
2024-04-22T00:42:33.038Z,99.99
2024-04-22T00:43:33.089Z,99.99
2024-04-22T00:44:33.042Z,99.99
2024-04-22T00:45:33.004Z,99.99
2024-04-22T00:46:33.059Z,99.99
2024-04-22T00:47:33.111Z,99.99
2024-04-22T00:48:32.971Z,99.99
2024-04-22T00:49:33.053Z,99.99
2024-04-22T00:50:33.013Z,99.99
2024-04-22T00:51:32.935Z,99.99
2024-04-22T00:52:33.039Z,99.99
2024-04-22T00:53:32.972Z,99.99
2024-04-22T00:54:32.908Z,99.99
2024-04-22T00:55:32.986Z,99.99
2024-04-22T00:56:32.948Z,99.99
2024-04-22T00:57:32.874Z,99.99
2024-04-22T00:58:32.925Z,99.99
2024-04-22T00:59:32.919Z,99.99
2024-04-22T01:00:32.910Z,99.99
2024-04-22T01:01:32.883Z,99.99
2024-04-22T01:02:33.101Z,99.99
2024-04-22T01:03:32.839Z,99.99
2024-04-22T01:04:32.983Z,99.99
2024-04-22T01:05:32.822Z,99.99
2024-04-22T01:06:32.988Z,99.99
2024-04-22T01:07:32.859Z,99.99
2024-04-22T01:08:32.746Z,99.99
2024-04-22T01:09:32.748Z,99.99
2024-04-22T01:10:32.852Z,99.99
2024-04-22T01:11:32.801Z,99.99
2024-04-22T01:12:32.721Z,99.99
2024-04-22T01:13:32.794Z,99.99
2024-04-22T01:14:32.712Z,99.99
2024-04-22T01:15:32.691Z,99.99
2024-04-22T01:16:32.674Z,99.99
2024-04-22T01:17:32.851Z,99.99
2024-04-22T01:18:32.686Z,99.99
2024-04-22T01:19:32.652Z,99.99
2024-04-22T01:20:32.701Z,99.99
2024-04-22T01:21:32.651Z,99.99
2024-04-22T01:22:32.677Z,99.99
2024-04-22T01:23:32.655Z,99.99
2024-04-22T01:24:32.611Z,99.99
2024-04-22T01:25:32.637Z,99.99
2024-04-22T01:26:32.563Z,99.99
2024-04-22T01:27:32.604Z,99.99
2024-04-22T01:28:32.589Z,99.99
2024-04-22T01:29:32.602Z,99.99
2024-04-22T01:30:32.584Z,99.99
2024-04-22T01:31:32.555Z,99.99
2024-04-22T01:32:32.657Z,99.99
2024-04-22T01:33:32.558Z,99.99
2024-04-22T01:34:32.538Z,99.99
2024-04-22T01:35:32.509Z,99.99
2024-04-22T01:36:32.535Z,99.99
2024-04-22T01:37:32.504Z,99.99
2024-04-22T01:38:32.434Z,99.99
2024-04-22T01:39:32.460Z,99.99
2024-04-22T01:40:32.429Z,99.99
2024-04-22T01:41:32.419Z,99.99
2024-04-22T01:42:32.418Z,99.99
2024-04-22T01:43:32.544Z,99.99
2024-04-22T01:44:32.409Z,99.99
2024-04-22T01:45:32.427Z,99.99
2024-04-22T01:46:32.506Z,99.99
2024-04-22T01:47:32.505Z,99.99
2024-04-22T01:48:32.360Z,99.99
2024-04-22T01:49:32.355Z,99.99
2024-04-22T01:50:32.314Z,99.99
2024-04-22T01:51:32.291Z,99.99
2024-04-22T01:52:32.344Z,99.99
2024-04-22T01:53:32.337Z,99.99
2024-04-22T01:54:32.256Z,99.99
2024-04-22T01:55:32.307Z,99.99
2024-04-22T01:56:32.251Z,99.99
2024-04-22T01:57:32.247Z,99.99
2024-04-22T01:58:32.317Z,99.99
2024-04-22T01:59:32.254Z,99.99
2024-04-22T02:00:32.297Z,99.99
2024-04-22T02:01:32.235Z,99.99
2024-04-22T02:02:32.260Z,99.99
2024-04-22T02:03:32.221Z,99.99
2024-04-22T02:04:41.425Z,99.99
2024-04-22T02:05:34.908Z,99.99
2024-04-22T02:06:32.123Z,99.99
2024-04-22T02:07:32.179Z,99.99
2024-04-22T02:08:32.177Z,99.99
2024-04-22T02:09:32.168Z,99.99
2024-04-22T02:10:32.243Z,99.99
2024-04-22T02:11:32.202Z,99.99
2024-04-22T02:12:32.092Z,99.99
2024-04-22T02:13:32.168Z,99.99
2024-04-22T02:14:32.079Z,99.99
2024-04-22T02:15:32.097Z,99.99
2024-04-22T02:16:32.090Z,99.99
2024-04-22T02:17:32.125Z,99.99
2024-04-22T02:18:32.028Z,99.99
2024-04-22T02:19:32.063Z,99.99
2024-04-22T02:20:32.013Z,99.99
2024-04-22T02:21:31.975Z,99.99
2024-04-22T02:22:32.135Z,99.99
2024-04-22T02:23:31.974Z,99.99
2024-04-22T02:24:31.982Z,99.99
2024-04-22T02:25:31.991Z,99.99
2024-04-22T02:26:31.959Z,99.99
2024-04-22T02:27:31.932Z,99.99
2024-04-22T02:28:31.976Z,99.99
2024-04-22T02:29:31.882Z,99.99
2024-04-22T02:30:31.929Z,99.99
2024-04-22T02:31:31.968Z,99.99
2024-04-22T02:32:31.994Z,99.99
2024-04-22T02:33:32.026Z,99.99
2024-04-22T02:34:31.988Z,99.99
2024-04-22T02:35:31.855Z,99.99
2024-04-22T02:36:31.852Z,99.99
2024-04-22T02:37:31.864Z,99.99
2024-04-22T02:38:31.839Z,99.99
2024-04-22T02:39:31.823Z,99.99
2024-04-22T02:40:31.908Z,99.99
2024-04-22T02:41:31.828Z,99.99
2024-04-22T02:42:31.786Z,99.99
2024-04-22T02:43:31.849Z,99.99
2024-04-22T02:44:31.764Z,99.99
2024-04-22T02:45:31.724Z,99.99
2024-04-22T02:46:31.798Z,99.99
2024-04-22T02:47:31.790Z,99.99
2024-04-22T02:48:31.730Z,99.99
2024-04-22T02:49:31.739Z,99.99
2024-04-22T02:50:31.735Z,99.99
2024-04-22T02:51:31.683Z,99.99
2024-04-22T02:52:31.756Z,99.99
2024-04-22T02:53:31.669Z,99.99
2024-04-22T02:54:31.638Z,99.99
2024-04-22T02:55:31.683Z,99.99
2024-04-22T02:56:31.643Z,99.99
2024-04-22T02:57:31.612Z,99.99
2024-04-22T02:58:31.644Z,99.99
2024-04-22T02:59:31.584Z,99.99
2024-04-22T03:00:31.674Z,99.99
2024-04-22T03:01:31.596Z,99.99
2024-04-22T03:02:31.587Z,99.99
2024-04-22T03:03:31.574Z,99.99
2024-04-22T03:04:31.670Z,99.99
2024-04-22T03:05:31.545Z,99.99
2024-04-22T03:06:31.510Z,99.99
2024-04-22T03:07:31.553Z,99.99
2024-04-22T03:08:31.499Z,99.99
2024-04-22T03:09:31.471Z,99.99
2024-04-22T03:10:31.584Z,99.99
2024-04-22T03:11:31.475Z,99.99
2024-04-22T03:12:31.529Z,99.99
2024-04-22T03:13:31.463Z,99.99
2024-04-22T03:14:31.434Z,99.99
2024-04-22T03:15:31.415Z,99.99
2024-04-22T03:16:31.450Z,99.99
2024-04-22T03:17:31.493Z,99.99
2024-04-22T03:18:31.518Z,99.99
2024-04-22T03:19:31.407Z,99.99
2024-04-22T03:20:31.411Z,99.99
2024-04-22T03:21:31.377Z,99.99
2024-04-22T03:22:31.452Z,99.99
2024-04-22T03:23:31.344Z,99.99
2024-04-22T03:24:31.353Z,99.99
2024-04-22T03:25:31.402Z,99.99
2024-04-22T03:26:31.303Z,99.99
2024-04-22T03:27:31.321Z,99.99
2024-04-22T03:28:31.344Z,99.99
2024-04-22T03:29:31.284Z,99.99
2024-04-22T03:30:31.284Z,99.99
2024-04-22T03:31:31.296Z,99.99
2024-04-22T03:32:31.386Z,99.99
2024-04-22T03:33:31.227Z,99.99
2024-04-22T03:34:31.267Z,99.99
2024-04-22T03:35:31.236Z,99.99
2024-04-22T03:36:31.191Z,99.99
2024-04-22T03:37:31.252Z,99.99
2024-04-22T03:38:31.178Z,99.99
2024-04-22T03:39:31.181Z,99.99
2024-04-22T03:40:31.265Z,99.99
2024-04-22T03:41:31.138Z,99.99
2024-04-22T03:42:31.169Z,99.99
2024-04-22T03:43:31.170Z,99.99
2024-04-22T03:44:31.129Z,99.99
2024-04-22T03:45:31.095Z,99.99
2024-04-22T03:46:31.193Z,99.99
2024-04-22T03:47:31.163Z,99.99
2024-04-22T03:48:31.119Z,99.99
2024-04-22T03:49:31.122Z,99.99
2024-04-22T03:50:31.078Z,99.99
2024-04-22T03:51:31.031Z,99.99
2024-04-22T03:52:31.115Z,99.99
2024-04-22T03:53:31.044Z,99.99
2024-04-22T03:54:31.008Z,99.99
2024-04-22T03:55:31.051Z,99.99
2024-04-22T03:56:31.027Z,99.99
2024-04-22T03:57:30.967Z,99.99
2024-04-22T03:58:31.014Z,99.99
2024-04-22T03:59:30.950Z,99.99
2024-04-22T04:00:31.031Z,99.99
2024-04-22T04:01:30.951Z,99.99
2024-04-22T04:02:30.915Z,99.99
2024-04-22T04:03:30.942Z,99.99
2024-04-22T04:04:31.056Z,99.99
2024-04-22T04:05:30.975Z,99.99
2024-04-22T04:06:30.933Z,99.99
2024-04-22T04:07:30.905Z,99.99
2024-04-22T04:08:30.843Z,99.99
2024-04-22T04:09:30.879Z,99.99
2024-04-22T04:10:30.918Z,99.99
2024-04-22T04:11:30.894Z,99.99
2024-04-22T04:12:30.830Z,99.99
2024-04-22T04:13:30.925Z,99.99
2024-04-22T04:14:30.811Z,99.99
2024-04-22T04:15:30.862Z,99.99
2024-04-22T04:16:30.983Z,99.99
2024-04-22T04:17:30.950Z,99.99
2024-04-22T04:18:30.781Z,99.99
2024-04-22T04:19:30.875Z,99.99
2024-04-22T04:20:30.872Z,99.99
2024-04-22T04:21:30.767Z,99.99
2024-04-22T04:22:30.908Z,99.99
2024-04-22T04:23:30.877Z,99.99
2024-04-22T04:24:30.699Z,99.99
2024-04-22T04:25:30.761Z,99.99
2024-04-22T04:26:30.671Z,99.99
2024-04-22T04:27:30.677Z,99.99
2024-04-22T04:28:30.739Z,99.99
2024-04-22T04:29:30.670Z,99.99
2024-04-22T04:30:30.626Z,99.99
2024-04-22T04:31:30.664Z,99.99
2024-04-22T04:32:30.653Z,99.99
2024-04-22T04:33:30.621Z,99.99
2024-04-22T04:34:30.606Z,99.99
2024-04-22T04:35:30.629Z,99.99
2024-04-22T04:36:30.571Z,99.99
2024-04-22T04:37:30.589Z,99.99
2024-04-22T04:38:30.544Z,99.99
2024-04-22T04:39:30.505Z,99.99
2024-04-22T04:40:30.579Z,99.99
2024-04-22T04:41:30.522Z,99.99
2024-04-22T04:42:30.483Z,99.99
2024-04-22T04:43:30.485Z,99.99
2024-04-22T04:44:30.539Z,99.99
2024-04-22T04:45:30.461Z,99.99
2024-04-22T04:46:30.508Z,99.99
2024-04-22T04:47:30.484Z,99.99
2024-04-22T04:48:30.461Z,99.99
2024-04-22T04:49:30.523Z,99.99
2024-04-22T04:50:30.424Z,99.99
2024-04-22T04:51:30.405Z,99.99
2024-04-22T04:52:30.877Z,99.99
2024-04-22T04:53:30.414Z,99.99
2024-04-22T04:54:30.352Z,99.99
2024-04-22T04:55:30.391Z,99.99
2024-04-22T04:56:30.329Z,99.99
2024-04-22T04:57:30.351Z,99.99
2024-04-22T04:58:30.366Z,99.99
2024-04-22T04:59:30.347Z,99.99
2024-04-22T05:00:30.390Z,99.99
2024-04-22T05:01:30.636Z,99.99
2024-04-22T05:02:30.390Z,99.99
2024-04-22T05:03:30.438Z,99.99
2024-04-22T05:04:30.338Z,99.99
2024-04-22T05:05:30.268Z,99.99
2024-04-22T05:06:30.233Z,99.99
2024-04-22T05:07:30.274Z,99.99
2024-04-22T05:08:30.283Z,99.99
2024-04-22T05:09:30.242Z,99.99
2024-04-22T05:10:30.366Z,99.99
2024-04-22T05:11:30.280Z,99.99
2024-04-22T05:12:30.166Z,99.99
2024-04-22T05:13:30.184Z,99.99
2024-04-22T05:14:30.154Z,99.99
2024-04-22T05:15:30.159Z,99.99
2024-04-22T05:16:30.256Z,99.99
2024-04-22T05:17:30.189Z,99.99
2024-04-22T05:18:30.173Z,99.99
2024-04-22T05:19:30.165Z,99.99
2024-04-22T05:20:30.068Z,99.99
2024-04-22T05:21:30.079Z,99.99
2024-04-22T05:22:30.142Z,99.99
2024-04-22T05:23:30.041Z,99.99
2024-04-22T05:24:30.203Z,99.99
2024-04-22T05:25:30.090Z,99.99
2024-04-22T05:26:30.095Z,99.99
2024-04-22T05:27:32.406Z,99.99
2024-04-22T05:28:30.103Z,99.99
2024-04-22T05:29:30.019Z,99.99
2024-04-22T05:30:29.999Z,99.99
2024-04-22T05:31:30.079Z,99.99
2024-04-22T05:32:29.999Z,99.99
2024-04-22T05:33:30.959Z,99.99
2024-04-22T05:34:30.049Z,99.99
2024-04-22T05:35:38.673Z,99.99
2024-04-22T05:36:29.920Z,99.99
2024-04-22T05:37:31.739Z,99.99
2024-04-22T05:38:29.875Z,99.99
2024-04-22T05:39:29.891Z,99.99
2024-04-22T05:40:29.891Z,99.99
2024-04-22T05:41:29.853Z,99.99
2024-04-22T05:42:29.859Z,99.99
2024-04-22T05:43:29.860Z,99.99
2024-04-22T05:44:29.815Z,99.99
2024-04-22T05:45:29.839Z,99.99
2024-04-22T05:46:29.843Z,99.99
2024-04-22T05:47:29.968Z,99.99
2024-04-22T05:48:29.866Z,99.99
2024-04-22T05:49:29.806Z,99.99
2024-04-22T05:50:29.772Z,99.99
2024-04-22T05:51:29.751Z,99.99
2024-04-22T05:52:29.756Z,99.99
2024-04-22T05:53:29.767Z,99.99
2024-04-22T05:54:29.738Z,99.99
2024-04-22T05:55:29.762Z,99.99
2024-04-22T05:56:29.719Z,99.99
2024-04-22T05:57:29.699Z,99.99
2024-04-22T05:58:29.731Z,99.99
2024-04-22T05:59:29.720Z,99.99
2024-04-22T06:00:29.669Z,99.99
2024-04-22T06:01:29.713Z,99.99
2024-04-22T06:02:29.652Z,99.99
2024-04-22T06:03:29.612Z,99.99
2024-04-22T06:04:29.621Z,99.99
2024-04-22T06:05:29.596Z,99.99
2024-04-22T06:06:29.602Z,99.99
2024-04-22T06:07:29.624Z,99.99
2024-04-22T06:08:29.555Z,99.99
2024-04-22T06:09:29.559Z,99.99
2024-04-22T06:10:29.593Z,99.99
2024-04-22T06:11:29.550Z,99.99
2024-04-22T06:12:29.560Z,99.99
2024-04-22T06:13:29.581Z,99.99
2024-04-22T06:14:29.509Z,99.99
2024-04-22T06:15:29.547Z,99.99
2024-04-22T06:16:29.579Z,99.99
2024-04-22T06:17:30.298Z,99.99
2024-04-22T06:18:29.476Z,99.99
2024-04-22T06:19:29.487Z,99.99
2024-04-22T06:20:29.464Z,99.99
2024-04-22T06:21:29.444Z,99.99
2024-04-22T06:22:29.485Z,99.99
2024-04-22T06:23:29.438Z,99.99
2024-04-22T06:24:29.402Z,99.99
2024-04-22T06:25:29.469Z,99.99
2024-04-22T06:26:29.420Z,99.99
2024-04-22T06:27:29.374Z,99.99
2024-04-22T06:28:29.429Z,99.99
2024-04-22T06:29:29.391Z,99.99
2024-04-22T06:30:29.403Z,99.99
2024-04-22T06:31:29.381Z,99.99
2024-04-22T06:32:29.483Z,99.99
2024-04-22T06:33:29.391Z,99.99
2024-04-22T06:34:29.362Z,99.99
2024-04-22T06:35:29.293Z,99.99
2024-04-22T06:36:29.285Z,99.99
2024-04-22T06:37:29.297Z,99.99
2024-04-22T06:38:29.282Z,99.99
2024-04-22T06:39:29.247Z,99.99
2024-04-22T06:40:29.280Z,99.99
2024-04-22T06:41:29.275Z,99.99
2024-04-22T06:42:30.179Z,99.99
2024-04-22T06:43:29.234Z,99.99
2024-04-22T06:44:29.241Z,99.99
2024-04-22T06:45:29.171Z,99.99
2024-04-22T06:46:29.225Z,99.99
2024-04-22T06:47:29.971Z,99.99
2024-04-22T06:48:29.152Z,99.99
2024-04-22T06:49:30.065Z,99.72
2024-04-22T06:50:29.142Z,99.00
2024-04-22T06:51:29.127Z,98.27
2024-04-22T06:52:29.165Z,98.27
2024-04-22T06:53:29.129Z,98.27
2024-04-22T06:54:29.063Z,97.44
2024-04-22T06:55:29.104Z,97.13
2024-04-22T06:56:29.170Z,96.78
2024-04-22T06:57:29.077Z,95.95
2024-04-22T06:58:29.122Z,95.68
2024-04-22T06:59:29.035Z,95.74
2024-04-22T07:00:29.013Z,95.64
2024-04-22T07:01:35.538Z,95.64
2024-04-22T07:02:30.594Z,95.53
2024-04-22T07:03:29.131Z,95.53
2024-04-22T07:04:28.999Z,95.01
2024-04-22T07:05:28.967Z,94.81
2024-04-22T07:06:28.968Z,93.98
2024-04-22T07:07:28.948Z,93.56
2024-04-22T07:08:28.919Z,93.77
2024-04-22T07:09:28.923Z,94.08
2024-04-22T07:10:28.974Z,94.39
2024-04-22T07:11:29.026Z,94.60
2024-04-22T07:12:28.902Z,94.76
2024-04-22T07:13:28.939Z,94.04
2024-04-22T07:14:28.848Z,93.52
2024-04-22T07:15:28.896Z,93.10
2024-04-22T07:16:28.880Z,92.24
2024-04-22T07:17:29.896Z,92.44
2024-04-22T07:18:28.896Z,91.93
2024-04-22T07:19:28.858Z,90.89
2024-04-22T07:20:28.828Z,90.95
2024-04-22T07:21:28.792Z,90.44
2024-04-22T07:22:28.843Z,90.12
2024-04-22T07:23:28.765Z,90.39
2024-04-22T07:24:29.075Z,89.87
2024-04-22T07:25:28.851Z,89.62
2024-04-22T07:26:28.732Z,88.90
2024-04-22T07:27:28.727Z,87.31
2024-04-22T07:28:28.752Z,85.24
2024-04-22T07:29:28.741Z,83.28
2024-04-22T07:30:28.815Z,83.70
2024-04-22T07:31:28.716Z,82.56
2024-04-22T07:32:28.724Z,81.11
2024-04-22T07:33:31.617Z,82.08
2024-04-22T07:34:28.675Z,82.87
2024-04-22T07:35:28.688Z,83.49
2024-04-22T07:36:28.688Z,82.35
2024-04-22T07:37:28.705Z,82.62
2024-04-22T07:38:28.617Z,82.62
2024-04-22T07:39:28.622Z,81.35
2024-04-22T07:40:28.617Z,79.22
2024-04-22T07:41:28.569Z,80.21
2024-04-22T07:42:28.581Z,79.69
2024-04-22T07:43:28.607Z,78.52
2024-04-22T07:44:28.568Z,78.63
2024-04-22T07:45:30.861Z,77.59
2024-04-22T07:46:28.559Z,75.49
2024-04-22T07:47:28.674Z,74.15
2024-04-22T07:48:28.528Z,71.23
2024-04-22T07:49:28.718Z,71.34
2024-04-22T07:50:28.825Z,72.85
2024-04-22T07:51:28.500Z,72.23
2024-04-22T07:52:28.488Z,75.01
2024-04-22T07:53:28.467Z,75.60
2024-04-22T07:54:28.573Z,74.60
2024-04-22T07:55:29.477Z,73.88
2024-04-22T07:56:28.395Z,74.91
2024-04-22T07:57:28.398Z,75.32
2024-04-22T07:58:28.426Z,75.12
2024-04-22T07:59:28.402Z,73.57
2024-04-22T08:00:28.383Z,73.26
2024-04-22T08:01:28.394Z,74.33
2024-04-22T08:02:29.483Z,74.29
2024-04-22T08:03:29.310Z,72.85
2024-04-22T08:04:28.373Z,68.93
2024-04-22T08:05:28.324Z,66.33
2024-04-22T08:06:28.324Z,63.89
2024-04-22T08:07:28.336Z,63.06
2024-04-22T08:08:29.276Z,63.75
2024-04-22T08:09:28.280Z,63.65
2024-04-22T08:10:28.328Z,61.56
2024-04-22T08:11:28.326Z,61.66
2024-04-22T08:12:28.259Z,63.31
2024-04-22T08:13:28.244Z,65.03
2024-04-22T08:14:29.767Z,64.51
2024-04-22T08:15:28.298Z,63.10
2024-04-22T08:16:28.398Z,64.03
2024-04-22T08:17:28.364Z,63.90
2024-04-22T08:18:28.317Z,63.69
2024-04-22T08:19:28.211Z,62.15
2024-04-22T08:20:28.152Z,62.43
2024-04-22T08:21:28.134Z,62.33
2024-04-22T08:22:28.147Z,62.02
2024-04-22T08:23:28.113Z,62.30
2024-04-22T08:24:28.085Z,61.58
2024-04-22T08:25:28.239Z,63.71
2024-04-22T08:26:28.783Z,59.70
2024-04-22T08:27:28.091Z,61.21
2024-04-22T08:28:28.085Z,63.27
2024-04-22T08:29:28.043Z,62.96
2024-04-22T08:30:28.054Z,64.50
2024-04-22T08:31:28.056Z,62.14
2024-04-22T08:32:28.155Z,61.32
2024-04-22T08:33:28.120Z,62.65
2024-04-22T08:34:27.994Z,62.24
2024-04-22T08:35:27.971Z,60.93
2024-04-22T08:36:27.983Z,61.04
2024-04-22T08:37:28.046Z,57.85
2024-04-22T08:38:27.964Z,58.54
2024-04-22T08:39:27.942Z,58.92
2024-04-22T08:40:27.944Z,58.31
2024-04-22T08:41:28.319Z,59.41
2024-04-22T08:42:27.920Z,56.23
2024-04-22T08:43:27.925Z,56.20
2024-04-22T08:44:27.885Z,57.95
2024-04-22T08:45:27.863Z,59.15
2024-04-22T08:46:27.871Z,56.10
2024-04-22T08:47:27.954Z,56.43
2024-04-22T08:48:27.972Z,56.74
2024-04-22T08:49:27.849Z,57.87
2024-04-22T08:50:27.805Z,61.46
2024-04-22T08:51:27.816Z,59.54
2024-04-22T08:52:33.635Z,58.72
2024-04-22T08:53:28.821Z,57.49
2024-04-22T08:54:27.802Z,58.00
2024-04-22T08:55:27.797Z,55.85
2024-04-22T08:56:27.794Z,56.56
2024-04-22T08:57:27.766Z,55.57
2024-04-22T08:58:27.767Z,56.70
2024-04-22T08:59:37.327Z,58.41
2024-04-22T09:00:28.723Z,57.59
2024-04-22T09:01:27.763Z,57.18
2024-04-22T09:02:27.766Z,55.05
2024-04-22T09:03:27.692Z,56.82
2024-04-22T09:04:27.847Z,56.62
2024-04-22T09:05:28.002Z,59.50
2024-04-22T09:06:27.803Z,59.85
2024-04-22T09:07:27.798Z,57.70
2024-04-22T09:08:27.641Z,56.54
2024-04-22T09:09:46.877Z,55.69
2024-04-22T09:11:04.919Z,55.56
2024-04-22T09:11:58.084Z,52.56
2024-04-22T09:12:28.691Z,48.47
2024-04-22T09:13:27.749Z,48.16
2024-04-22T09:14:27.827Z,47.64
2024-04-22T09:15:27.777Z,49.26
2024-04-22T09:16:27.639Z,46.81
2024-04-22T09:17:28.025Z,47.52
2024-04-22T09:18:29.914Z,46.30
2024-04-22T09:19:27.614Z,49.96
2024-04-22T09:20:27.525Z,46.86
2024-04-22T09:21:27.582Z,45.84
2024-04-22T09:22:27.541Z,46.33
2024-04-22T09:23:27.539Z,47.64
2024-04-22T09:24:27.450Z,47.86
2024-04-22T09:25:27.637Z,48.27
2024-04-22T09:26:27.457Z,45.82
2024-04-22T09:27:27.467Z,46.51
2024-04-22T09:28:27.452Z,47.23
2024-04-22T09:29:27.429Z,46.59
2024-04-22T09:30:27.384Z,46.29
2024-04-22T09:31:27.390Z,46.08
2024-04-22T09:32:27.653Z,45.96
2024-04-22T09:33:27.410Z,46.14
2024-04-22T09:34:27.446Z,46.43
2024-04-22T09:35:27.503Z,49.57
2024-04-22T09:36:27.340Z,46.48
2024-04-22T09:37:27.407Z,45.57
2024-04-22T09:38:35.583Z,44.43
2024-04-22T09:39:28.305Z,45.65
2024-04-22T09:40:27.408Z,43.63
2024-04-22T09:41:28.891Z,45.36
2024-04-22T09:42:27.349Z,44.59
2024-04-22T09:43:27.379Z,44.90
2024-04-22T09:44:27.252Z,44.59
2024-04-22T09:45:27.293Z,47.75
2024-04-22T09:46:27.283Z,44.37
2024-04-22T09:47:27.271Z,43.96
2024-04-22T09:48:27.293Z,44.26
2024-04-22T09:49:29.848Z,45.67
2024-04-22T09:50:27.346Z,44.71
2024-04-22T09:51:27.177Z,43.59
2024-04-22T09:52:27.166Z,43.90
2024-04-22T09:53:28.078Z,42.02
2024-04-22T09:54:27.139Z,42.96
2024-04-22T09:55:27.213Z,43.49
2024-04-22T09:56:27.281Z,45.63
2024-04-22T09:57:27.152Z,43.61
2024-04-22T09:58:27.255Z,45.85
2024-04-22T09:59:27.205Z,43.18
2024-04-22T10:00:27.046Z,44.38
2024-04-22T10:01:27.228Z,41.41
2024-04-22T10:02:27.101Z,41.61
2024-04-22T10:03:27.125Z,42.63
2024-04-22T10:04:27.136Z,41.53
2024-04-22T10:05:27.283Z,40.91
2024-04-22T10:06:27.163Z,41.63
2024-04-22T10:07:27.140Z,40.94
2024-04-22T10:08:27.059Z,40.03
2024-04-22T10:09:27.088Z,40.74
2024-04-22T10:10:26.990Z,39.80
2024-04-22T10:11:27.257Z,41.41
2024-04-22T10:12:27.154Z,40.27
2024-04-22T10:13:26.958Z,39.76
2024-04-22T10:14:26.991Z,39.87
2024-04-22T10:15:26.891Z,39.04
2024-04-22T10:16:26.891Z,39.34
2024-04-22T10:17:26.982Z,39.34
2024-04-22T10:18:26.932Z,40.03
2024-04-22T10:19:27.242Z,38.79
2024-04-22T10:20:26.883Z,39.12
2024-04-22T10:21:26.851Z,41.35
2024-04-22T10:22:26.853Z,42.27
2024-04-22T10:23:26.811Z,41.62
2024-04-22T10:24:26.792Z,39.06
2024-04-22T10:25:26.788Z,37.32
2024-04-22T10:26:26.778Z,38.56
2024-04-22T10:27:26.754Z,37.96
2024-04-22T10:28:26.772Z,37.88
2024-04-22T10:29:26.715Z,39.93
2024-04-22T10:30:26.721Z,41.33
2024-04-22T10:31:26.775Z,40.62
2024-04-22T10:32:26.725Z,40.72
2024-04-22T10:33:26.709Z,42.14
2024-04-22T10:34:26.750Z,39.75
2024-04-22T10:35:26.681Z,41.68
2024-04-22T10:36:26.698Z,41.88
2024-04-22T10:37:26.723Z,40.36
2024-04-22T10:38:26.647Z,38.02
2024-04-22T10:39:26.737Z,39.75
2024-04-22T10:40:26.853Z,41.07
2024-04-22T10:41:26.632Z,43.63
2024-04-22T10:42:26.613Z,41.47
2024-04-22T10:43:26.612Z,41.07
2024-04-22T10:44:26.565Z,38.24
2024-04-22T10:45:26.553Z,40.99
2024-04-22T10:46:26.620Z,38.14
2024-04-22T10:47:26.656Z,35.99
2024-04-22T10:48:26.681Z,37.51
2024-04-22T10:49:26.723Z,37.51
2024-04-22T10:50:26.598Z,36.60
2024-04-22T10:51:26.494Z,38.14
2024-04-22T10:52:27.116Z,37.63
2024-04-22T10:53:26.493Z,36.83
2024-04-22T10:54:26.471Z,36.53
2024-04-22T10:55:26.452Z,37.26
2024-04-22T10:56:26.613Z,37.36
2024-04-22T10:57:26.469Z,38.60
2024-04-22T10:58:26.451Z,41.14
2024-04-22T10:59:26.409Z,40.23
2024-04-22T11:00:26.417Z,40.53
2024-04-22T11:01:26.679Z,39.92
2024-04-22T11:02:26.533Z,39.21
2024-04-22T11:03:26.362Z,37.48
2024-04-22T11:04:26.430Z,38.70
2024-04-22T11:05:26.949Z,40.03
2024-04-22T11:06:26.358Z,40.12
2024-04-22T11:07:26.335Z,40.25
2024-04-22T11:08:26.323Z,39.84
2024-04-22T11:09:26.306Z,40.14
2024-04-22T11:10:34.645Z,40.23
2024-04-22T11:11:27.352Z,40.01
2024-04-22T11:12:28.489Z,41.02
2024-04-22T11:13:26.283Z,40.72
2024-04-22T11:14:26.235Z,40.60
2024-04-22T11:15:26.340Z,39.28
2024-04-22T11:16:26.360Z,39.28
2024-04-22T11:17:26.241Z,43.04
2024-04-22T11:18:26.233Z,39.99
2024-04-22T11:19:26.210Z,40.68
2024-04-22T11:20:26.163Z,38.97
2024-04-22T11:21:26.144Z,39.99
2024-04-22T11:22:26.203Z,38.17
2024-04-22T11:23:26.127Z,40.01
2024-04-22T11:24:26.129Z,39.60
2024-04-22T11:25:26.125Z,38.58
2024-04-22T11:26:26.116Z,40.52
2024-04-22T11:27:26.107Z,40.94
2024-04-22T11:28:26.105Z,41.80
2024-04-22T11:29:26.068Z,41.41
2024-04-22T11:30:26.072Z,42.12
2024-04-22T11:31:26.072Z,42.63
2024-04-22T11:32:26.184Z,41.63
2024-04-22T11:33:26.038Z,42.35
2024-04-22T11:34:26.653Z,43.77
2024-04-22T11:35:26.092Z,45.43
2024-04-22T11:36:26.007Z,45.53
2024-04-22T11:37:26.055Z,45.55
2024-04-22T11:38:25.958Z,44.63
2024-04-22T11:39:25.963Z,44.65
2024-04-22T11:40:26.977Z,45.92
2024-04-22T11:41:25.930Z,46.66
2024-04-22T11:42:25.991Z,46.07
2024-04-22T11:43:26.030Z,46.91
2024-04-22T11:44:25.905Z,47.42
2024-04-22T11:45:25.887Z,47.73
2024-04-22T11:46:25.972Z,46.30
2024-04-22T11:47:25.958Z,46.68
2024-04-22T11:48:25.892Z,46.91
2024-04-22T11:49:25.899Z,47.40
2024-04-22T11:50:26.234Z,47.50
2024-04-22T11:51:25.810Z,47.40
2024-04-22T11:52:25.921Z,47.78
2024-04-22T11:53:26.184Z,46.86
2024-04-22T11:54:25.784Z,48.09
2024-04-22T11:55:25.791Z,45.94
2024-04-22T11:56:25.778Z,44.51
2024-04-22T11:57:25.776Z,43.79
2024-04-22T11:58:25.989Z,45.23
2024-04-22T11:59:25.770Z,43.69
2024-04-22T12:00:25.722Z,44.82
2024-04-22T12:01:25.748Z,43.57
2024-04-22T12:02:25.716Z,42.12
2024-04-22T12:03:25.724Z,42.81
2024-04-22T12:04:25.956Z,41.36
2024-04-22T12:05:25.756Z,44.10
2024-04-22T12:06:25.672Z,41.33
2024-04-22T12:07:25.671Z,40.61
2024-04-22T12:08:25.672Z,39.49
2024-04-22T12:09:25.621Z,39.73
2024-04-22T12:10:25.736Z,39.22
2024-04-22T12:11:26.295Z,39.44
2024-04-22T12:12:25.610Z,40.28
2024-04-22T12:13:25.755Z,40.81
2024-04-22T12:14:25.584Z,40.40
2024-04-22T12:15:25.550Z,41.32
2024-04-22T12:16:25.604Z,42.02
2024-04-22T12:17:25.711Z,39.56
2024-04-22T12:18:25.541Z,40.17
2024-04-22T12:19:25.599Z,39.05
2024-04-22T12:20:25.515Z,39.67
2024-04-22T12:21:25.514Z,39.46
2024-04-22T12:22:25.532Z,40.69
2024-04-22T12:23:25.485Z,39.78
2024-04-22T12:24:25.473Z,41.32
2024-04-22T12:25:25.487Z,40.58
2024-04-22T12:26:25.430Z,40.26
2024-04-22T12:27:25.432Z,39.44
2024-04-22T12:28:25.486Z,40.85
2024-04-22T12:29:25.443Z,39.10
2024-04-22T12:30:25.408Z,38.87
2024-04-22T12:31:25.387Z,39.06
2024-04-22T12:32:25.434Z,39.03
2024-04-22T12:33:25.563Z,41.35
2024-04-22T12:34:25.481Z,39.42
2024-04-22T12:35:25.382Z,37.87
2024-04-22T12:36:25.327Z,37.26
2024-04-22T12:37:25.404Z,39.38
2024-04-22T12:38:25.336Z,37.12
2024-04-22T12:39:25.310Z,37.61
2024-04-22T12:40:25.375Z,36.58
2024-04-22T12:41:25.308Z,36.27
2024-04-22T12:42:25.250Z,38.18
2024-04-22T12:43:25.282Z,39.78
2024-04-22T12:44:25.232Z,39.13
2024-04-22T12:45:25.229Z,37.99
2024-04-22T12:46:25.286Z,39.82
2024-04-22T12:47:25.464Z,39.01
2024-04-22T12:48:25.281Z,37.89
2024-04-22T12:49:25.232Z,38.91
2024-04-22T12:50:33.937Z,39.64
2024-04-22T12:51:25.154Z,40.97
2024-04-22T12:52:25.166Z,40.26